KBQK/BQK METAR and TAF weather

Enter ICAO airport designator
Station Type Date Time Source
KBQK METAR 2019/07/20 20:15 UTC NOAA

KBQK 202015Z AUTO 21007KT 10SM SCT039 SCT048 33/25 A3001 RMK AO2 T03290245


Station Type Date Time Source
KBQK Decoded METAR 2019/07/20 20:15 UTC NOAA

Brunswick / Glynco, GA, United States (KBQK) 31-15N 081-28W
Jul 20, 2019 - 04:15 PM EDT / 2019.07.20 2015 UTC
Wind: from the SSW (210 degrees) at 8 MPH (7 KT):0
Visibility: 10 mile(s):0
Sky conditions: partly cloudy
Temperature: 91.2 F (32.9 C)
Heat index: 103.3 F (39.6 C):1
Dew Point: 76.1 F (24.5 C)
Relative Humidity: 61%
Pressure (altimeter): 30.01 in. Hg (1016 hPa)
ob: KBQK 202015Z AUTO 21007KT 10SM SCT039 SCT048 33/25 A3001 RMK AO2 T03290245
cycle: 20

Station Type Date Time Source
KBQK TAF UTC NOAA

Error!

Example: see airport list